FW2893 Weather Reports


Display with metric or nautical units.
time (UTC)temp
F
wind
direction
speed
MPH
gust
MPH
rain 1hr
in
rain 24hr
in
rain mn
in
humidity
%
barometer
mb
20190823063313 81 55 1.0 11.0 0.00 0.00 0.00 53 1008.3
20190823060316 78 314 0.0 9.0 0.00 0.00 0.00 57 1008.4
20190823053316 76 24 1.0 9.0 0.00 0.00 0.00 61 1008.5
20190823050313 73 38 1.0 7.0 0.00 0.00 0.00 65 1008.5
20190823043313 73 22 3.0 7.0 0.00 0.00 0.00 67 1008.4
20190823040312 71 350 1.0 6.0 0.00 0.00 0.00 68 1008.3
20190823033315 70 48 0.0 6.0 0.00 0.00 0.00 70 1008.0
20190823030312 69 40 1.0 7.0 0.00 0.00 0.00 72 1007.9
20190823023312 68 35 0.0 6.0 0.00 0.00 0.00 72 1007.7
20190823020312 68 321 1.0 8.0 0.00 0.00 0.00 72 1007.6
20190823013312 67 30 0.0 6.0 0.00 0.00 0.00 73 1007.5
20190823010348 68 340 0.0 7.0 0.00 0.00 0.00 71 1007.4
20190823003311 68 277 1.0 7.0 0.00 0.00 0.00 69 1007.3
20190823000312 69 292 0.0 3.0 0.00 0.00 0.00 68 1007.3
20190822233311 69 276 2.0 6.0 0.00 0.00 0.00 66 1007.2
20190822230311 69 290 1.0 4.0 0.00 0.00 0.00 65 1007.1
20190822223314 69 292 0.0 4.0 0.00 0.00 0.00 66 1006.9
20190822213318 71 325 4.0 4.0 0.00 0.00 0.00 65 1007.0
20190822210324 71 305 0.0 0.0 0.00 0.00 0.00 64 1007.0
20190822203318 70 258 0.0 0.0 0.00 0.00 0.00 66 1007.0
20190822200321 69 258 0.0 0.0 0.00 0.00 0.00 67 1006.8
20190822193317 71 258 0.0 0.0 0.00 0.00 0.00 65 1006.7
20190822190320 72 258 0.0 0.0 0.00 0.00 0.00 63 1006.6
20190822183317 71 258 0.0 5.0 0.00 0.00 0.00 65 1006.7
20190822180317 70 262 0.0 4.0 0.00 0.00 0.00 67 1006.6
20190822173317 74 57 1.0 4.0 0.00 0.00 0.00 60 1006.4
20190822170320 82 57 0.0 3.0 0.00 0.00 0.00 46 1006.3
20190822163317 83 47 1.0 7.0 0.00 0.00 0.00 45 1006.0
20190822160317 85 34 0.0 7.0 0.00 0.00 0.00 43 1005.9
20190822153316 88 62 0.0 2.0 0.00 0.00 0.00 41 1005.8
20190822150316 90 65 1.0 5.0 0.00 0.00 0.00 37 1005.7
20190822143316 91 67 1.0 9.0 0.00 0.00 0.00 35 1005.6
20190822140316 91 82 1.0 13.0 0.00 0.00 0.00 35 1005.5
20190822133316 91 102 1.0 10.0 0.00 0.00 0.00 35 1005.5
20190822130316 92 129 0.0 10.0 0.00 0.00 0.00 34 1005.6
20190822123316 92 63 1.0 8.0 0.00 0.00 0.00 34 1005.7
20190822120315 91 86 1.0 12.0 0.00 0.00 0.00 34 1005.8
20190822113315 91 5 0.0 13.0 0.00 0.00 0.00 35 1005.9
20190822110315 91 53 1.0 14.0 0.00 0.00 0.00 36 1006.3
20190822103315 90 86 2.0 15.0 0.00 0.00 0.00 36 1006.3
20190822100318 90 62 0.0 12.0 0.00 0.00 0.00 37 1006.4
20190822093315 89 98 1.0 13.0 0.00 0.00 0.00 38 1006.6
20190822090315 88 92 0.0 13.0 0.00 0.00 0.00 40 1006.7
20190822083315 87 103 2.0 11.0 0.00 0.00 0.00 42 1006.9
20190822080314 86 61 2.0 10.0 0.00 0.00 0.00 44 1007.2
20190822073317 85 63 1.0 13.0 0.00 0.00 0.00 47 1007.4
20190822070314 83 35 1.0 11.0 0.00 0.00 0.00 50 1007.4